sensor_id;sensor_type;location;lat;lon;timestamp;pressure;altitude;pressure_sealevel;temperature;humidity
43430;BME280;29028;43.234;27.896;2022-12-24T14:38:51;99818.03;;;13.17;70.71
43430;BME280;29028;43.234;27.896;2022-12-24T14:39:22;99826.56;;;13.14;71.09
43430;BME280;29028;43.234;27.896;2022-12-24T14:39:47;99815.75;;;13.14;70.85
43430;BME280;29028;43.234;27.896;2022-12-24T14:40:14;99823.66;;;13.16;70.76
43430;BME280;29028;43.234;27.896;2022-12-24T14:40:41;99805.22;;;13.00;70.83
43430;BME280;29028;43.234;27.896;2022-12-24T14:41:18;99828.88;;;13.11;70.76
43430;BME280;29028;43.234;27.896;2022-12-24T14:41:46;99817.06;;;13.05;70.87
43430;BME280;29028;43.234;27.896;2022-12-24T14:42:25;99830.97;;;13.09;70.84
43430;BME280;29028;43.234;27.896;2022-12-24T14:42:55;99832.84;;;13.08;70.81
43430;BME280;29028;43.234;27.896;2022-12-24T14:43:23;99829.72;;;13.05;71.21
43430;BME280;29028;43.234;27.896;2022-12-24T14:43:56;99828.69;;;13.06;70.99
43430;BME280;29028;43.234;27.896;2022-12-24T14:44:25;99834.09;;;13.06;71.36
43430;BME280;29028;43.234;27.896;2022-12-24T14:44:57;99834.94;;;13.06;71.49
43430;BME280;29028;43.234;27.896;2022-12-24T14:45:28;99827.22;;;13.10;71.19
43430;BME280;29028;43.234;27.896;2022-12-24T14:45:55;99829.53;;;13.06;71.24
43430;BME280;29028;43.234;27.896;2022-12-24T14:46:24;99823.28;;;13.06;71.06
43430;BME280;29028;43.234;27.896;2022-12-24T14:46:50;99827.44;;;13.08;71.13
43430;BME280;29028;43.234;27.896;2022-12-24T14:47:25;99829.31;;;13.08;70.89
43430;BME280;29028;43.234;27.896;2022-12-24T14:47:54;99829.53;;;13.06;70.89
43430;BME280;29028;43.234;27.896;2022-12-24T14:48:24;99827.88;;;13.05;71.16
43430;BME280;29028;43.234;27.896;2022-12-24T14:48:51;99820.19;;;13.02;71.16
43430;BME280;29028;43.234;27.896;2022-12-24T14:49:22;99830.56;;;13.05;71.18
43430;BME280;29028;43.234;27.896;2022-12-24T14:49:59;99836.38;;;13.09;71.06
43430;BME280;29028;43.234;27.896;2022-12-24T14:50:35;99825.16;;;13.05;71.01
43430;BME280;29028;43.234;27.896;2022-12-24T14:51:07;99836.78;;;13.06;70.98
43430;BME280;29028;43.234;27.896;2022-12-24T14:51:35;99824.34;;;12.98;71.41
43430;BME280;29028;43.234;27.896;2022-12-24T14:52:06;99836.59;;;13.07;71.27
43430;BME280;29028;43.234;27.896;2022-12-24T14:52:34;99825.59;;;13.02;71.24
43430;BME280;29028;43.234;27.896;2022-12-24T14:53:11;99837.84;;;13.05;71.40
43430;BME280;29028;43.234;27.896;2022-12-24T14:53:47;99839.09;;;13.02;71.34
43430;BME280;29028;43.234;27.896;2022-12-24T14:54:32;99835.78;;;13.00;71.51
43430;BME280;29028;43.234;27.896;2022-12-24T14:54:55;99836.59;;;13.01;71.30
43430;BME280;29028;43.234;27.896;2022-12-24T14:55:30;99831.22;;;12.94;71.69
43430;BME280;29028;43.234;27.896;2022-12-24T14:55:54;99827.47;;;12.89;72.04
43430;BME280;29028;43.234;27.896;2022-12-24T14:56:19;99834.31;;;12.91;71.91
43430;BME280;29028;43.234;27.896;2022-12-24T14:56:40;99828.50;;;12.94;72.06
43430;BME280;29028;43.234;27.896;2022-12-24T14:57:19;99837.25;;;12.96;71.76
43430;BME280;29028;43.234;27.896;2022-12-24T14:57:41;99833.06;;;12.94;71.63
43430;BME280;29028;43.234;27.896;2022-12-24T14:58:20;99835.16;;;12.92;71.81
43430;BME280;29028;43.234;27.896;2022-12-24T14:58:43;99829.13;;;12.90;71.83
43430;BME280;29028;43.234;27.896;2022-12-24T14:59:13;99843.91;;;12.87;72.17
43430;BME280;29028;43.234;27.896;2022-12-24T14:59:46;99836.84;;;12.86;72.37
43430;BME280;29028;43.234;27.896;2022-12-24T15:00:17;99845.59;;;12.82;72.50
43430;BME280;29028;43.234;27.896;2022-12-24T15:00:41;99839.16;;;12.76;73.04
43430;BME280;29028;43.234;27.896;2022-12-24T15:01:18;99841.25;;;12.74;73.02
43430;BME280;29028;43.234;27.896;2022-12-24T15:01:39;99840.19;;;12.75;72.72
43430;BME280;29028;43.234;27.896;2022-12-24T15:02:22;99841.25;;;12.74;72.86
43430;BME280;29028;43.234;27.896;2022-12-24T15:02:45;99846.84;;;12.73;73.11
43430;BME280;29028;43.234;27.896;2022-12-24T15:03:11;99843.94;;;12.74;73.20
43430;BME280;29028;43.234;27.896;2022-12-24T15:03:33;99839.16;;;12.76;72.93
43430;BME280;29028;43.234;27.896;2022-12-24T15:04:03;99846.63;;;12.81;73.03
43430;BME280;29028;43.234;27.896;2022-12-24T15:04:25;99832.75;;;12.71;72.84
43430;BME280;29028;43.234;27.896;2022-12-24T15:05:02;99837.94;;;12.72;72.81
43430;BME280;29028;43.234;27.896;2022-12-24T15:05:25;99842.91;;;12.69;73.15
43430;BME280;29028;43.234;27.896;2022-12-24T15:05:50;99847.69;;;12.67;73.30
43430;BME280;29028;43.234;27.896;2022-12-24T15:06:13;99851.84;;;12.69;73.38
43430;BME280;29028;43.234;27.896;2022-12-24T15:06:36;99842.09;;;12.68;73.28
43430;BME280;29028;43.234;27.896;2022-12-24T15:06:57;99839.59;;;12.67;73.32
43430;BME280;29028;43.234;27.896;2022-12-24T15:07:23;99843.53;;;12.71;73.41
43430;BME280;29028;43.234;27.896;2022-12-24T15:07:46;99846.88;;;12.66;73.50
43430;BME280;29028;43.234;27.896;2022-12-24T15:08:11;99843.56;;;12.64;73.47
43430;BME280;29028;43.234;27.896;2022-12-24T15:08:37;99841.50;;;12.60;73.71
43430;BME280;29028;43.234;27.896;2022-12-24T15:09:00;99844.00;;;12.61;73.77
43430;BME280;29028;43.234;27.896;2022-12-24T15:09:24;99846.47;;;12.63;73.60
43430;BME280;29028;43.234;27.896;2022-12-24T15:09:47;99848.56;;;12.61;73.85
43430;BME280;29028;43.234;27.896;2022-12-24T15:10:23;99845.00;;;12.60;73.80
43430;BME280;29028;43.234;27.896;2022-12-24T15:10:49;99846.25;;;12.64;73.92
43430;BME280;29028;43.234;27.896;2022-12-24T15:11:13;99843.34;;;12.59;74.33
43430;BME280;29028;43.234;27.896;2022-12-24T15:11:36;99843.56;;;12.64;73.80
43430;BME280;29028;43.234;27.896;2022-12-24T15:11:59;99851.03;;;12.62;73.89
43430;BME280;29028;43.234;27.896;2022-12-24T15:12:23;99841.91;;;12.63;74.02
43430;BME280;29028;43.234;27.896;2022-12-24T15:12:44;99841.25;;;12.68;73.77
43430;BME280;29028;43.234;27.896;2022-12-24T15:13:07;99847.28;;;12.70;73.77
43430;BME280;29028;43.234;27.896;2022-12-24T15:13:35;99840.84;;;12.71;73.55
43430;BME280;29028;43.234;27.896;2022-12-24T15:13:58;99841.06;;;12.69;73.48
43430;BME280;29028;43.234;27.896;2022-12-24T15:14:20;99846.03;;;12.72;73.54
43430;BME280;29028;43.234;27.896;2022-12-24T15:14:43;99845.81;;;12.74;73.42
43430;BME280;29028;43.234;27.896;2022-12-24T15:15:12;99846.03;;;12.72;73.39
43430;BME280;29028;43.234;27.896;2022-12-24T15:15:35;99841.66;;;12.71;73.39
43430;BME280;29028;43.234;27.896;2022-12-24T15:15:56;99849.16;;;12.69;73.56
43430;BME280;29028;43.234;27.896;2022-12-24T15:16:20;99847.50;;;12.68;73.84
43430;BME280;29028;43.234;27.896;2022-12-24T15:16:50;99852.91;;;12.75;73.46
43430;BME280;29028;43.234;27.896;2022-12-24T15:17:12;99846.25;;;12.71;73.64
43430;BME280;29028;43.234;27.896;2022-12-24T15:17:34;99836.28;;;12.65;73.59
43430;BME280;29028;43.234;27.896;2022-12-24T15:17:56;99841.28;;;12.61;73.73
43430;BME280;29028;43.234;27.896;2022-12-24T15:18:21;99841.69;;;12.58;74.44
43430;BME280;29028;43.234;27.896;2022-12-24T15:18:46;99845.66;;;12.56;74.28
43430;BME280;29028;43.234;27.896;2022-12-24T15:19:16;99835.69;;;12.50;74.27
43430;BME280;29028;43.234;27.896;2022-12-24T15:19:42;99847.75;;;12.54;74.36
43430;BME280;29028;43.234;27.896;2022-12-24T15:20:09;99845.66;;;12.49;74.45
43430;BME280;29028;43.234;27.896;2022-12-24T15:20:31;99838.41;;;12.43;74.91
43430;BME280;29028;43.234;27.896;2022-12-24T15:20:53;99849.41;;;12.48;74.78
43430;BME280;29028;43.234;27.896;2022-12-24T15:21:20;99848.34;;;12.56;74.68
43430;BME280;29028;43.234;27.896;2022-12-24T15:21:42;99851.25;;;12.61;74.48
43430;BME280;29028;43.234;27.896;2022-12-24T15:22:07;99850.84;;;12.57;74.64
43430;BME280;29028;43.234;27.896;2022-12-24T15:22:30;99838.78;;;12.60;74.61
43430;BME280;29028;43.234;27.896;2022-12-24T15:22:53;99854.78;;;12.55;74.58
43430;BME280;29028;43.234;27.896;2022-12-24T15:23:17;99841.09;;;12.43;75.01
43430;BME280;29028;43.234;27.896;2022-12-24T15:23:45;99852.94;;;12.49;75.09
43430;BME280;29028;43.234;27.896;2022-12-24T15:24:23;99849.59;;;12.47;75.33
43430;BME280;29028;43.234;27.896;2022-12-24T15:24:45;99848.78;;;12.46;75.61
43430;BME280;29028;43.234;27.896;2022-12-24T15:25:18;99853.34;;;12.46;75.61
43430;BME280;29028;43.234;27.896;2022-12-24T15:25:40;99833.22;;;12.35;75.58
43430;BME280;29028;43.234;27.896;2022-12-24T15:26:06;99849.84;;;12.45;75.47
43430;BME280;29028;43.234;27.896;2022-12-24T15:26:28;99854.81;;;12.42;75.66
43430;BME280;29028;43.234;27.896;2022-12-24T15:26:50;99857.09;;;12.38;75.83
43430;BME280;29028;43.234;27.896;2022-12-24T15:27:14;99851.69;;;12.38;76.09
43430;BME280;29028;43.234;27.896;2022-12-24T15:27:38;99854.19;;;12.33;75.94
43430;BME280;29028;43.234;27.896;2022-12-24T15:27:59;99849.44;;;12.35;76.16
43430;BME280;29028;43.234;27.896;2022-12-24T15:28:22;99850.69;;;12.33;76.13
43430;BME280;29028;43.234;27.896;2022-12-24T15:28:43;99851.72;;;12.32;76.31
43430;BME280;29028;43.234;27.896;2022-12-24T15:29:18;99840.91;;;12.32;76.41
43430;BME280;29028;43.234;27.896;2022-12-24T15:29:43;99844.63;;;12.37;76.33
43430;BME280;29028;43.234;27.896;2022-12-24T15:30:13;99848.78;;;12.40;76.47
43430;BME280;29028;43.234;27.896;2022-12-24T15:30:34;99852.75;;;12.37;76.25
43430;BME280;29028;43.234;27.896;2022-12-24T15:31:05;99844.84;;;12.36;76.45
43430;BME280;29028;43.234;27.896;2022-12-24T15:31:28;99840.06;;;12.31;76.48
43430;BME280;29028;43.234;27.896;2022-12-24T15:31:53;99859.19;;;12.30;76.45
43430;BME280;29028;43.234;27.896;2022-12-24T15:32:17;99848.81;;;12.27;76.77
43430;BME280;29028;43.234;27.896;2022-12-24T15:32:39;99856.72;;;12.28;76.87
43430;BME280;29028;43.234;27.896;2022-12-24T15:32:59;99849.84;;;12.26;76.82
43430;BME280;29028;43.234;27.896;2022-12-24T15:33:20;99856.50;;;12.23;76.93
43430;BME280;29028;43.234;27.896;2022-12-24T15:33:43;99857.94;;;12.19;77.06
43430;BME280;29028;43.234;27.896;2022-12-24T15:34:05;99851.91;;;12.24;77.26
43430;BME280;29028;43.234;27.896;2022-12-24T15:34:44;99854.63;;;12.24;77.25
43430;BME280;29028;43.234;27.896;2022-12-24T15:35:34;99858.75;;;12.20;77.26
43430;BME280;29028;43.234;27.896;2022-12-24T15:36:03;99854.81;;;12.22;77.60
43430;BME280;29028;43.234;27.896;2022-12-24T15:36:27;99856.06;;;12.20;77.42
43430;BME280;29028;43.234;27.896;2022-12-24T15:36:50;99860.44;;;12.21;77.45
43430;BME280;29028;43.234;27.896;2022-12-24T15:37:15;99843.84;;;12.17;77.29
43430;BME280;29028;43.234;27.896;2022-12-24T15:37:40;99849.66;;;12.14;77.54
43430;BME280;29028;43.234;27.896;2022-12-24T15:38:02;99850.25;;;12.16;77.73
43430;BME280;29028;43.234;27.896;2022-12-24T15:38:29;99854.19;;;12.14;77.74
43430;BME280;29028;43.234;27.896;2022-12-24T15:38:52;99855.03;;;12.14;77.45
43430;BME280;29028;43.234;27.896;2022-12-24T15:39:15;99854.00;;;12.22;76.41
43430;BME280;29028;43.234;27.896;2022-12-24T15:39:37;99855.47;;;12.24;76.39
43430;BME280;29028;43.234;27.896;2022-12-24T15:40:03;99855.47;;;12.24;76.56
43430;BME280;29028;43.234;27.896;2022-12-24T15:40:28;99863.56;;;12.31;76.28
43430;BME280;29028;43.234;27.896;2022-12-24T15:40:49;99865.63;;;12.29;76.07
43430;BME280;29028;43.234;27.896;2022-12-24T15:41:17;99855.25;;;12.26;76.64
43430;BME280;29028;43.234;27.896;2022-12-24T15:41:40;99855.47;;;12.24;76.65
43430;BME280;29028;43.234;27.896;2022-12-24T15:42:17;99867.31;;;12.23;76.55
43430;BME280;29028;43.234;27.896;2022-12-24T15:42:42;99856.06;;;12.20;76.48
43430;BME280;29028;43.234;27.896;2022-12-24T15:43:04;99867.50;;;12.22;76.83
43430;BME280;29028;43.234;27.896;2022-12-24T15:43:26;99863.97;;;12.21;76.57
43430;BME280;29028;43.234;27.896;2022-12-24T15:43:47;99857.91;;;12.65;80.39
43430;BME280;29028;43.234;27.896;2022-12-24T15:44:12;99863.44;;;12.96;83.71
43430;BME280;29028;43.234;27.896;2022-12-24T15:44:37;99862.22;;;12.79;78.10
43430;BME280;29028;43.234;27.896;2022-12-24T15:45:03;99863.50;;;12.63;76.11
43430;BME280;29028;43.234;27.896;2022-12-24T15:45:29;99857.91;;;12.52;75.59
43430;BME280;29028;43.234;27.896;2022-12-24T15:45:52;99865.19;;;12.51;75.46
43430;BME280;29028;43.234;27.896;2022-12-24T15:46:18;99866.66;;;12.47;75.21
43430;BME280;29028;43.234;27.896;2022-12-24T15:46:39;99855.84;;;12.41;75.22
43430;BME280;29028;43.234;27.896;2022-12-24T15:47:01;99864.78;;;12.35;75.33
43430;BME280;29028;43.234;27.896;2022-12-24T15:47:27;99858.56;;;12.28;75.72
43430;BME280;29028;43.234;27.896;2022-12-24T15:47:58;99874.38;;;12.31;75.69
43430;BME280;29028;43.234;27.896;2022-12-24T15:48:22;99854.41;;;12.25;75.73
43430;BME280;29028;43.234;27.896;2022-12-24T15:48:44;99867.50;;;12.28;75.92
43430;BME280;29028;43.234;27.896;2022-12-24T15:49:15;99858.16;;;12.24;75.96
43430;BME280;29028;43.234;27.896;2022-12-24T15:49:37;99860.44;;;12.27;75.98
43430;BME280;29028;43.234;27.896;2022-12-24T15:49:58;99851.50;;;12.20;76.09
43430;BME280;29028;43.234;27.896;2022-12-24T15:50:23;99861.47;;;12.26;75.88
43430;BME280;29028;43.234;27.896;2022-12-24T15:50:50;99860.44;;;12.27;75.76
43430;BME280;29028;43.234;27.896;2022-12-24T15:51:20;99860.44;;;12.21;75.80
43430;BME280;29028;43.234;27.896;2022-12-24T15:51:43;99868.97;;;12.24;76.17
43430;BME280;29028;43.234;27.896;2022-12-24T15:52:07;99872.25;;;12.20;76.24
43430;BME280;29028;43.234;27.896;2022-12-24T15:52:38;99866.44;;;12.16;76.12
43430;BME280;29028;43.234;27.896;2022-12-24T15:53:00;99870.84;;;12.17;76.28
43430;BME280;29028;43.234;27.896;2022-12-24T15:53:26;99869.56;;;12.20;76.18
43430;BME280;29028;43.234;27.896;2022-12-24T15:53:47;99862.50;;;12.19;76.16
43430;BME280;29028;43.234;27.896;2022-12-24T15:54:12;99867.50;;;12.22;76.21
43430;BME280;29028;43.234;27.896;2022-12-24T15:54:36;99845.28;;;12.13;76.09
43430;BME280;29028;43.234;27.896;2022-12-24T15:54:57;99863.34;;;12.19;76.38
43430;BME280;29028;43.234;27.896;2022-12-24T15:55:28;99868.13;;;12.24;76.33
43430;BME280;29028;43.234;27.896;2022-12-24T15:56:05;99866.25;;;12.24;76.29
43430;BME280;29028;43.234;27.896;2022-12-24T15:56:31;99862.94;;;12.16;76.04
43430;BME280;29028;43.234;27.896;2022-12-24T15:56:52;99872.50;;;12.18;76.26
43430;BME280;29028;43.234;27.896;2022-12-24T15:57:20;99876.22;;;12.17;76.55
43430;BME280;29028;43.234;27.896;2022-12-24T15:57:42;99881.63;;;12.17;76.47
43430;BME280;29028;43.234;27.896;2022-12-24T15:58:14;99870.59;;;12.19;76.52
43430;BME280;29028;43.234;27.896;2022-12-24T15:58:37;99862.94;;;12.16;76.43
43430;BME280;29028;43.234;27.896;2022-12-24T15:59:22;99871.84;;;12.16;76.33
43430;BME280;29028;43.234;27.896;2022-12-24T15:59:50;99871.25;;;12.21;76.31
43430;BME280;29028;43.234;27.896;2022-12-24T16:00:20;99866.25;;;12.24;76.38
43430;BME280;29028;43.234;27.896;2022-12-24T16:00:42;99866.06;;;12.26;76.33
43430;BME280;29028;43.234;27.896;2022-12-24T16:01:41;99868.13;;;12.24;76.49
43430;BME280;29028;43.234;27.896;2022-12-24T16:02:26;99872.25;;;12.20;75.97
43430;BME280;29028;43.234;27.896;2022-12-24T16:02:52;99863.97;;;12.15;75.97
43430;BME280;29028;43.234;27.896;2022-12-24T16:03:16;99856.91;;;12.07;76.25
43430;BME280;29028;43.234;27.896;2022-12-24T16:03:39;99870.41;;;12.14;76.33
43430;BME280;29028;43.234;27.896;2022-12-24T16:04:09;99873.94;;;12.14;76.29
43430;BME280;29028;43.234;27.896;2022-12-24T16:04:32;99856.91;;;12.07;76.20
43430;BME280;29028;43.234;27.896;2022-12-24T16:04:53;99867.69;;;12.14;76.31
43430;BME280;29028;43.234;27.896;2022-12-24T16:05:18;99858.97;;;12.05;76.52
43430;BME280;29028;43.234;27.896;2022-12-24T16:05:39;99870.63;;;12.12;76.62
43430;BME280;29028;43.234;27.896;2022-12-24T16:06:02;99878.50;;;12.07;76.81
43430;BME280;29028;43.234;27.896;2022-12-24T16:06:23;99871.63;;;12.11;76.86
43430;BME280;29028;43.234;27.896;2022-12-24T16:06:52;99872.06;;;12.08;76.74
43430;BME280;29028;43.234;27.896;2022-12-24T16:07:23;99882.25;;;12.06;76.79
43430;BME280;29028;43.234;27.896;2022-12-24T16:08:01;99869.34;;;12.02;77.00
43430;BME280;29028;43.234;27.896;2022-12-24T16:08:31;99881.22;;;12.07;76.93
43430;BME280;29028;43.234;27.896;2022-12-24T16:08:53;99882.44;;;12.05;76.92
43430;BME280;29028;43.234;27.896;2022-12-24T16:09:37;99885.78;;;12.13;76.97
43430;BME280;29028;43.234;27.896;2022-12-24T16:10:00;99876.22;;;12.11;76.62
43430;BME280;29028;43.234;27.896;2022-12-24T16:10:38;99878.91;;;12.11;76.49
43430;BME280;29028;43.234;27.896;2022-12-24T16:11:16;99880.97;;;12.09;76.39
43430;BME280;29028;43.234;27.896;2022-12-24T16:11:39;99876.22;;;12.11;76.17
43430;BME280;29028;43.234;27.896;2022-12-24T16:12:00;99877.47;;;12.08;76.39
43430;BME280;29028;43.234;27.896;2022-12-24T16:12:23;99882.03;;;12.08;76.38
43430;BME280;29028;43.234;27.896;2022-12-24T16:12:46;99874.78;;;12.08;76.30
43430;BME280;29028;43.234;27.896;2022-12-24T16:13:13;99865.41;;;12.04;76.64
43430;BME280;29028;43.234;27.896;2022-12-24T16:13:37;99880.38;;;12.07;76.50
43430;BME280;29028;43.234;27.896;2022-12-24T16:14:03;99884.09;;;12.06;76.53
43430;BME280;29028;43.234;27.896;2022-12-24T16:14:27;99873.72;;;12.03;76.65
43430;BME280;29028;43.234;27.896;2022-12-24T16:14:51;99879.56;;;12.06;76.64
43430;BME280;29028;43.234;27.896;2022-12-24T16:15:13;99875.59;;;12.02;76.75
43430;BME280;29028;43.234;27.896;2022-12-24T16:15:34;99887.44;;;12.01;76.83
43430;BME280;29028;43.234;27.896;2022-12-24T16:15:58;99881.38;;;11.99;76.96
43430;BME280;29028;43.234;27.896;2022-12-24T16:16:32;99881.00;;;12.02;76.99
43430;BME280;29028;43.234;27.896;2022-12-24T16:16:54;99879.53;;;12.00;76.90
43430;BME280;29028;43.234;27.896;2022-12-24T16:17:20;99885.53;;;11.95;77.14
43430;BME280;29028;43.234;27.896;2022-12-24T16:17:47;99856.69;;;11.89;77.29
43430;BME280;29028;43.234;27.896;2022-12-24T16:18:14;99879.75;;;11.98;76.88
43430;BME280;29028;43.234;27.896;2022-12-24T16:18:37;99882.84;;;12.02;76.87
43430;BME280;29028;43.234;27.896;2022-12-24T16:19:02;99878.28;;;12.02;76.79
43430;BME280;29028;43.234;27.896;2022-12-24T16:19:28;99878.91;;;12.04;76.73
43430;BME280;29028;43.234;27.896;2022-12-24T16:19:51;99875.78;;;12.01;76.87
43430;BME280;29028;43.234;27.896;2022-12-24T16:20:19;99879.75;;;11.98;77.20
43430;BME280;29028;43.234;27.896;2022-12-24T16:20:46;99877.66;;;12.00;77.25
43430;BME280;29028;43.234;27.896;2022-12-24T16:21:07;99874.34;;;11.98;77.37
43430;BME280;29028;43.234;27.896;2022-12-24T16:21:30;99877.25;;;11.97;77.34
43430;BME280;29028;43.234;27.896;2022-12-24T16:21:55;99881.59;;;11.98;77.33
43430;BME280;29028;43.234;27.896;2022-12-24T16:22:18;99879.53;;;11.93;77.22
43430;BME280;29028;43.234;27.896;2022-12-24T16:22:51;99884.91;;;11.93;77.42
43430;BME280;29028;43.234;27.896;2022-12-24T16:23:16;99892.41;;;11.91;77.36
43430;BME280;29028;43.234;27.896;2022-12-24T16:23:45;99884.91;;;11.93;77.28
43430;BME280;29028;43.234;27.896;2022-12-24T16:24:14;99886.81;;;11.93;77.40
43430;BME280;29028;43.234;27.896;2022-12-24T16:24:36;99882.41;;;11.92;77.28
43430;BME280;29028;43.234;27.896;2022-12-24T16:24:57;99884.09;;;11.93;77.29
43430;BME280;29028;43.234;27.896;2022-12-24T16:25:25;99885.53;;;11.95;77.03
43430;BME280;29028;43.234;27.896;2022-12-24T16:25:48;99889.06;;;11.96;77.04
43430;BME280;29028;43.234;27.896;2022-12-24T16:26:09;99884.31;;;11.91;77.02
43430;BME280;29028;43.234;27.896;2022-12-24T16:26:29;99889.50;;;11.93;77.11
43430;BME280;29028;43.234;27.896;2022-12-24T16:26:51;99882.22;;;11.93;77.07
43430;BME280;29028;43.234;27.896;2022-12-24T16:27:12;99878.25;;;11.89;77.26
43430;BME280;29028;43.234;27.896;2022-12-24T16:27:33;99877.25;;;11.90;77.34
43430;BME280;29028;43.234;27.896;2022-12-24T16:27:54;99887.41;;;11.95;77.29
43430;BME280;29028;43.234;27.896;2022-12-24T16:28:16;99886.81;;;11.93;77.35
43430;BME280;29028;43.234;27.896;2022-12-24T16:28:37;99887.59;;;11.87;77.19
43430;BME280;29028;43.234;27.896;2022-12-24T16:28:58;99890.09;;;11.88;77.73
43430;BME280;29028;43.234;27.896;2022-12-24T16:29:19;99888.44;;;11.87;77.50
43430;BME280;29028;43.234;27.896;2022-12-24T16:29:41;99881.59;;;11.91;77.27
43430;BME280;29028;43.234;27.896;2022-12-24T16:30:03;99885.53;;;11.89;77.57
43430;BME280;29028;43.234;27.896;2022-12-24T16:30:24;99889.69;;;11.91;77.52
43430;BME280;29028;43.234;27.896;2022-12-24T16:30:44;99883.25;;;11.92;77.36
43430;BME280;29028;43.234;27.896;2022-12-24T16:31:05;99887.63;;;11.93;77.24
43430;BME280;29028;43.234;27.896;2022-12-24T16:31:29;99890.13;;;11.95;77.37
43430;BME280;29028;43.234;27.896;2022-12-24T16:31:52;99885.97;;;11.92;77.29
43430;BME280;29028;43.234;27.896;2022-12-24T16:32:26;99888.84;;;11.91;77.28
43430;BME280;29028;43.234;27.896;2022-12-24T16:32:49;99888.03;;;11.90;77.54
43430;BME280;29028;43.234;27.896;2022-12-24T16:33:13;99888.03;;;11.90;77.39
43430;BME280;29028;43.234;27.896;2022-12-24T16:33:35;99891.34;;;11.92;77.33
43430;BME280;29028;43.234;27.896;2022-12-24T16:33:57;99889.50;;;11.93;77.28
43430;BME280;29028;43.234;27.896;2022-12-24T16:34:19;99892.41;;;11.91;77.28
43430;BME280;29028;43.234;27.896;2022-12-24T16:34:44;99892.41;;;11.91;77.23
43430;BME280;29028;43.234;27.896;2022-12-24T16:35:06;99891.56;;;11.91;77.24
43430;BME280;29028;43.234;27.896;2022-12-24T16:35:30;99887.41;;;11.88;77.28
43430;BME280;29028;43.234;27.896;2022-12-24T16:35:52;99891.13;;;11.87;77.65
43430;BME280;29028;43.234;27.896;2022-12-24T16:36:14;99896.94;;;11.91;77.56
43430;BME280;29028;43.234;27.896;2022-12-24T16:36:35;99885.13;;;11.92;77.29
43430;BME280;29028;43.234;27.896;2022-12-24T16:36:56;99880.16;;;11.89;77.28
43430;BME280;29028;43.234;27.896;2022-12-24T16:37:18;99894.44;;;11.89;77.37
43430;BME280;29028;43.234;27.896;2022-12-24T16:37:39;99888.25;;;11.89;77.66
43430;BME280;29028;43.234;27.896;2022-12-24T16:38:00;99891.97;;;11.88;77.74
43430;BME280;29028;43.234;27.896;2022-12-24T16:38:21;99894.25;;;11.91;77.81
43430;BME280;29028;43.234;27.896;2022-12-24T16:38:43;99893.84;;;11.94;77.40
43430;BME280;29028;43.234;27.896;2022-12-24T16:39:25;99875.16;;;11.86;77.38
43430;BME280;29028;43.234;27.896;2022-12-24T16:39:49;99881.19;;;11.94;77.48
43430;BME280;29028;43.234;27.896;2022-12-24T16:40:13;99882.63;;;11.97;77.56
43430;BME280;29028;43.234;27.896;2022-12-24T16:40:34;99887.22;;;11.96;77.58
43430;BME280;29028;43.234;27.896;2022-12-24T16:40:57;99883.69;;;12.02;77.34
43430;BME280;29028;43.234;27.896;2022-12-24T16:41:18;99885.75;;;12.00;76.72
43430;BME280;29028;43.234;27.896;2022-12-24T16:41:39;99893.22;;;11.98;77.02
43430;BME280;29028;43.234;27.896;2022-12-24T16:42:14;99891.97;;;11.94;76.99
43430;BME280;29028;43.234;27.896;2022-12-24T16:42:53;99896.56;;;11.94;77.61
43430;BME280;29028;43.234;27.896;2022-12-24T16:43:32;99891.16;;;11.94;77.21
43430;BME280;29028;43.234;27.896;2022-12-24T16:44:11;99894.91;;;11.93;77.31
43430;BME280;29028;43.234;27.896;2022-12-24T16:44:31;99893.22;;;11.92;77.35
43430;BME280;29028;43.234;27.896;2022-12-24T16:44:53;99888.03;;;11.90;77.21
43430;BME280;29028;43.234;27.896;2022-12-24T16:45:14;99891.34;;;11.92;77.20
43430;BME280;29028;43.234;27.896;2022-12-24T16:45:36;99891.75;;;11.89;77.17
43430;BME280;29028;43.234;27.896;2022-12-24T16:46:00;99889.69;;;11.91;77.06
43430;BME280;29028;43.234;27.896;2022-12-24T16:46:22;99889.28;;;11.88;77.22
43430;BME280;29028;43.234;27.896;2022-12-24T16:46:43;99892.78;;;11.88;77.25
43430;BME280;29028;43.234;27.896;2022-12-24T16:47:05;99895.09;;;11.91;77.48
43430;BME280;29028;43.234;27.896;2022-12-24T16:47:28;99890.28;;;11.87;77.36
43430;BME280;29028;43.234;27.896;2022-12-24T16:47:51;99885.53;;;11.89;77.12
43430;BME280;29028;43.234;27.896;2022-12-24T16:48:16;99887.81;;;11.85;77.47
43430;BME280;29028;43.234;27.896;2022-12-24T16:48:38;99891.75;;;11.89;77.13
43430;BME280;29028;43.234;27.896;2022-12-24T16:49:00;99885.34;;;11.90;77.26
43430;BME280;29028;43.234;27.896;2022-12-24T16:49:22;99894.44;;;11.89;77.27
43430;BME280;29028;43.234;27.896;2022-12-24T16:49:43;99884.09;;;11.86;77.36
43430;BME280;29028;43.234;27.896;2022-12-24T16:50:06;99889.06;;;11.89;77.48
43430;BME280;29028;43.234;27.896;2022-12-24T16:50:28;99898.38;;;11.87;77.59
43430;BME280;29028;43.234;27.896;2022-12-24T16:50:50;99888.44;;;11.87;77.49
43430;BME280;29028;43.234;27.896;2022-12-24T16:51:12;99879.72;;;11.85;77.25
43430;BME280;29028;43.234;27.896;2022-12-24T16:51:33;99889.06;;;11.89;77.23
43430;BME280;29028;43.234;27.896;2022-12-24T16:51:54;99884.69;;;11.88;77.29
43430;BME280;29028;43.234;27.896;2022-12-24T16:52:17;99895.69;;;11.87;77.33
43430;BME280;29028;43.234;27.896;2022-12-24T16:52:38;99887.81;;;11.85;77.52
43430;BME280;29028;43.234;27.896;2022-12-24T16:53:00;99893.22;;;11.85;77.30
43430;BME280;29028;43.234;27.896;2022-12-24T16:53:22;99891.34;;;11.86;77.69
43430;BME280;29028;43.234;27.896;2022-12-24T16:53:43;99893.22;;;11.85;77.62
43430;BME280;29028;43.234;27.896;2022-12-24T16:54:05;99895.28;;;11.83;78.09